Time;durP1;ratioP1;P1;durP2;ratioP2;P2;SDS_P1;SDS_P2;PMS_P1;PMS_P2;Temp;Humidity;BMP_temperature;BMP_pressure;BME280_temperature;BME280_humidity;BME280_pressure;Samples;Min_cycle;Max_cycle;Signal;HPM_P1;HPM_P2
2022/08/14 00:00:13;;;;;;;10.98;9.13;;;;;;;23.18;53.76;98650.41;5126847;28;20051;-71
2022/08/14 00:02:41;;;;;;;9.57;7.78;;;;;;;23.16;53.70;98649.75;5126668;28;20055;-70
2022/08/14 00:05:10;;;;;;;7.85;6.75;;;;;;;23.05;53.96;98642.91;5126812;28;20051;-70
2022/08/14 00:07:40;;;;;;;8.40;7.30;;;;;;;23.07;54.04;98640.03;5126487;28;20100;-70
2022/08/14 00:10:10;;;;;;;7.80;6.88;;;;;;;23.07;53.94;98642.72;5126735;28;20052;-71
2022/08/14 00:12:41;;;;;;;7.68;6.88;;;;;;;23.11;53.98;98640.50;5126614;28;20319;-71
2022/08/14 00:15:12;;;;;;;8.02;7.22;;;;;;;23.11;54.15;98644.03;5126869;28;20039;-70
2022/08/14 00:17:40;;;;;;;8.38;7.22;;;;;;;23.10;53.91;98642.34;5126600;28;20363;-71
2022/08/14 00:20:09;;;;;;;7.82;7.03;;;;;;;23.03;53.97;98644.94;5126538;28;20108;-71
2022/08/14 00:22:36;;;;;;;11.43;10.27;;;;;;;22.65;54.12;98584.63;5126727;28;20059;-71
2022/08/14 00:25:06;;;;;;;13.13;10.48;;;;;;;23.02;54.49;98659.47;5126688;28;20120;-71
2022/08/14 00:27:34;;;;;;;10.73;9.63;;;;;;;22.99;54.29;98634.69;5125891;28;20060;-70
2022/08/14 00:30:02;;;;;;;10.90;9.90;;;;;;;23.00;54.04;98636.38;5126047;28;20051;-71
2022/08/14 00:32:29;;;;;;;8.02;7.22;;;;;;;22.97;54.23;98642.13;5126385;28;20060;-71
2022/08/14 00:35:00;;;;;;;7.80;6.97;;;;;;;22.85;54.18;98606.59;5126402;28;20055;-71
2022/08/14 00:37:27;;;;;;;8.25;7.45;;;;;;;22.94;54.39;98640.63;5126043;28;20051;-71
2022/08/14 00:39:55;;;;;;;8.77;7.88;;;;;;;22.95;53.97;98630.66;5126265;28;20319;-71
2022/08/14 00:42:24;;;;;;;7.65;6.80;;;;;;;22.96;54.30;98625.06;5125869;28;20051;-71
2022/08/14 00:44:52;;;;;;;7.45;6.30;;;;;;;22.94;54.36;98635.22;5126258;28;20055;-71
2022/08/14 00:47:22;;;;;;;7.55;6.75;;;;;;;22.92;54.48;98633.72;5126160;28;20063;-71
2022/08/14 00:49:49;;;;;;;7.47;6.78;;;;;;;22.91;54.49;98635.59;5126311;28;20108;-71
2022/08/14 00:52:17;;;;;;;9.20;7.43;;;;;;;22.93;54.55;98632.69;5125897;28;20064;-71
2022/08/14 00:54:45;;;;;;;8.13;6.78;;;;;;;22.92;54.38;98633.72;5125760;28;20119;-71
2022/08/14 00:57:13;;;;;;;7.15;6.32;;;;;;;22.20;54.72;98527.84;5126105;28;20101;-71
2022/08/14 00:59:42;;;;;;;6.95;6.03;;;;;;;22.89;54.92;98634.09;5125443;28;20063;-71
2022/08/14 01:02:10;;;;;;;7.00;6.30;;;;;;;22.90;54.91;98633.91;5126045;28;20055;-71
2022/08/14 01:04:39;;;;;;;7.88;6.63;;;;;;;22.93;54.36;98630.84;5125757;28;20089;-71
2022/08/14 01:07:07;;;;;;;7.95;6.90;;;;;;;22.94;54.51;98624.41;5126043;28;20055;-71
2022/08/14 01:09:36;;;;;;;7.53;6.55;;;;;;;22.96;54.63;98629.63;5125697;28;20108;-71
2022/08/14 01:12:04;;;;;;;7.10;6.22;;;;;;;22.81;54.33;98593.63;5125573;28;20056;-71
2022/08/14 01:14:32;;;;;;;8.55;6.47;;;;;;;22.95;54.66;98627.97;5125878;28;20109;-71
2022/08/14 01:17:00;;;;;;;7.28;6.03;;;;;;;22.98;54.63;98630.28;5125758;28;20056;-71
2022/08/14 01:22:14;;;;;;;7.90;6.38;;;;;;;22.93;54.52;98628.13;5125855;28;20081;-71
2022/08/14 01:24:42;;;;;;;8.50;6.72;;;;;;;22.98;54.39;98628.44;5125653;28;20060;-70
2022/08/14 01:27:16;;;;;;;9.25;7.18;;;;;;;22.99;54.91;98623.88;5125480;28;20100;-71
2022/08/14 01:29:44;;;;;;;;;;;;;;;22.82;55.36;98625.84;5126347;28;20112;-70
2022/08/14 01:32:12;;;;;;;8.32;6.85;;;;;;;22.87;54.93;98633.44;5125789;28;19957;-70
2022/08/14 01:34:39;;;;;;;6.90;6.20;;;;;;;22.94;54.44;98623.56;5125332;28;20055;-70
2022/08/14 01:37:06;;;;;;;7.38;6.30;;;;;;;22.95;54.56;98630.66;5125719;28;20056;-70
2022/08/14 01:39:35;;;;;;;7.80;6.43;;;;;;;22.97;54.66;98628.63;5125603;28;20059;-70
2022/08/14 01:42:04;;;;;;;7.22;6.25;;;;;;;22.96;54.99;98621.53;5125670;28;20112;-71
2022/08/14 01:44:31;;;;;;;6.43;5.80;;;;;;;22.90;54.97;98627.66;5125549;28;20055;-70
2022/08/14 01:47:00;;;;;;;7.97;7.13;;;;;;;22.95;54.77;98625.25;5125380;28;20055;-70
2022/08/14 01:49:30;;;;;;;7.50;5.95;;;;;;;22.93;55.05;98617.34;5125267;28;20055;-70
2022/08/14 01:51:57;;;;;;;7.13;6.32;;;;;;;22.80;55.23;98594.66;5125644;28;20250;-70
2022/08/14 01:54:25;;;;;;;7.75;6.10;;;;;;;22.94;55.12;98615.47;5125313;28;20060;-71
2022/08/14 01:56:56;;;;;;;7.88;7.07;;;;;;;22.90;55.28;98620.41;5125547;28;20059;-71
2022/08/14 01:59:30;;;;;;;6.85;6.15;;;;;;;22.90;55.25;98617.69;5125250;28;20201;-70
2022/08/14 02:01:58;;;;;;;8.95;6.53;;;;;;;22.75;55.25;98595.19;5126355;28;20257;-71
2022/08/14 02:04:29;;;;;;;7.00;6.25;;;;;;;22.90;55.51;98614.16;5129193;28;20112;-70
2022/08/14 02:06:57;;;;;;;6.30;5.70;;;;;;;22.91;55.33;98608.56;5129025;27;20249;-70
2022/08/14 02:09:25;;;;;;;7.65;6.85;;;;;;;22.90;55.33;98612.28;5128855;28;20051;-71
2022/08/14 02:11:55;;;;;;;7.93;6.85;;;;;;;22.92;55.34;98610.25;5129085;28;20214;-70
2022/08/14 02:14:22;;;;;;;7.18;6.47;;;;;;;22.80;55.58;98583.84;5129050;28;20307;-70
2022/08/14 02:16:51;;;;;;;6.68;5.85;;;;;;;22.94;55.42;98608.19;5128673;28;20112;-70
2022/08/14 02:19:21;;;;;;;6.72;6.03;;;;;;;22.96;55.39;98606.16;5128891;28;20112;-70
2022/08/14 02:21:53;;;;;;;7.35;6.43;;;;;;;22.88;55.86;98606.22;5128505;28;20327;-71
2022/08/14 02:24:23;;;;;;;7.55;6.75;;;;;;;22.91;55.69;98600.47;5128682;27;20234;-70
2022/08/14 02:26:52;;;;;;;7.10;6.40;;;;;;;22.92;55.43;98596.75;5128850;28;20063;-70
2022/08/14 02:29:24;;;;;;;6.60;5.85;;;;;;;22.56;55.68;98544.34;5128706;27;20063;-70
2022/08/14 02:31:54;;;;;;;7.00;5.90;;;;;;;22.92;55.54;98598.59;5128741;28;20131;-70
2022/08/14 02:34:28;;;;;;;7.75;6.95;;;;;;;22.93;55.50;98603.81;5128395;28;20051;-70
2022/08/14 02:36:57;;;;;;;6.40;5.50;;;;;;;22.90;55.81;98603.34;5128591;28;20055;-70
2022/08/14 02:39:24;;;;;;;6.28;5.35;;;;;;;22.91;55.77;98600.47;5128572;28;20449;-70
2022/08/14 02:41:51;;;;;;;7.30;6.05;;;;;;;22.90;55.88;98597.94;5127459;28;20096;-70
2022/08/14 02:44:22;;;;;;;7.40;6.28;;;;;;;22.95;55.62;98604.47;5128217;28;20116;-70
2022/08/14 02:46:50;;;;;;;7.07;6.38;;;;;;;22.90;55.70;98593.38;5128428;28;20113;-70
2022/08/14 02:49:20;;;;;;;7.20;6.28;;;;;;;22.81;56.15;98605.28;5128163;28;20092;-70
2022/08/14 02:51:48;;;;;;;6.15;5.55;;;;;;;22.77;56.29;98603.09;5128283;28;20073;-71
2022/08/14 02:54:16;;;;;;;6.53;5.88;;;;;;;22.79;56.33;98611.88;5128003;27;20105;-71
2022/08/14 02:56:43;;;;;;;8.38;7.20;;;;;;;22.80;56.29;98616.25;5128226;28;20056;-70
2022/08/14 02:59:12;;;;;;;6.80;6.07;;;;;;;22.85;55.96;98613.84;5128193;27;20051;-70
2022/08/14 03:01:41;;;;;;;7.45;6.65;;;;;;;22.86;55.92;98616.38;5128058;28;20051;-70
2022/08/14 03:04:09;;;;;;;6.85;6.15;;;;;;;22.72;56.12;98590.16;5127908;27;20253;-70
2022/08/14 03:06:37;;;;;;;7.45;6.75;;;;;;;22.81;56.32;98615.22;5127690;28;20301;-70
2022/08/14 03:09:04;;;;;;;6.70;5.82;;;;;;;22.83;56.13;98600.53;5128018;28;20105;-70
2022/08/14 03:11:32;;;;;;;7.10;6.30;;;;;;;22.81;56.32;98601.72;5127929;28;20055;-70
2022/08/14 03:13:59;;;;;;;6.85;6.00;;;;;;;22.75;56.64;98615.97;5127534;28;20052;-70
2022/08/14 03:16:27;;;;;;;7.30;6.50;;;;;;;22.65;56.59;98608.09;5127871;28;20052;-70
2022/08/14 03:18:57;;;;;;;6.90;6.20;;;;;;;22.74;56.59;98615.13;5127775;28;20056;-70
2022/08/14 03:21:24;;;;;;;7.93;6.78;;;;;;;22.76;56.70;98621.19;5127668;28;20052;-70
2022/08/14 03:23:59;;;;;;;7.38;6.40;;;;;;;22.81;56.47;98615.22;5127709;28;20059;-71
2022/08/14 03:26:27;;;;;;;7.10;6.20;;;;;;;22.76;56.70;98615.78;5127667;28;20101;-71
2022/08/14 03:28:55;;;;;;;6.70;5.82;;;;;;;22.78;56.28;98616.44;5127573;28;20055;-70
2022/08/14 03:31:22;;;;;;;8.95;6.25;;;;;;;22.78;56.41;98616.44;5127230;28;20055;-70
2022/08/14 03:33:50;;;;;;;7.57;6.30;;;;;;;22.73;57.10;98608.88;5127422;28;20308;-71
2022/08/14 03:36:21;;;;;;;7.53;6.72;;;;;;;22.73;57.06;98611.56;5127328;28;20238;-72
2022/08/14 03:38:51;;;;;;;6.40;5.80;;;;;;;22.61;56.82;98590.56;5127985;28;20108;-70
2022/08/14 03:41:20;;;;;;;7.50;6.53;;;;;;;22.76;56.70;98614.94;5127348;28;20047;-71
2022/08/14 03:43:49;;;;;;;9.55;8.55;;;;;;;22.70;56.75;98609.22;5127244;28;20052;-70
2022/08/14 03:46:17;;;;;;;10.50;9.38;;;;;;;22.31;56.67;98560.66;5126885;28;20051;-70
2022/08/14 03:48:45;;;;;;;11.55;8.73;;;;;;;22.65;57.02;98608.09;5127685;28;20349;-70
2022/08/14 03:51:13;;;;;;;12.18;9.52;;;;;;;22.66;57.34;98613.31;5126810;28;20261;-70
2022/08/14 03:53:44;;;;;;;9.80;7.93;;;;;;;22.53;57.51;98588.72;5127839;28;20104;-71
2022/08/14 03:56:13;;;;;;;8.25;7.18;;;;;;;22.63;57.00;98597.47;5127087;27;20441;-70
2022/08/14 03:58:45;;;;;;;8.25;7.38;;;;;;;22.68;57.38;98605.03;5126994;28;20063;-70
2022/08/14 04:01:13;;;;;;;7.60;6.38;;;;;;;22.59;57.20;98606.94;5126932;28;20249;-71
2022/08/14 04:03:40;;;;;;;7.75;6.93;;;;;;;22.62;57.33;98606.59;5126642;28;20316;-71
2022/08/14 04:06:09;;;;;;;7.18;6.47;;;;;;;22.68;56.85;98599.63;5126862;28;20064;-71
2022/08/14 04:08:36;;;;;;;7.65;6.13;;;;;;;22.72;57.17;98609.06;5126556;28;20101;-71
2022/08/14 04:11:06;;;;;;;7.40;6.68;;;;;;;22.75;57.42;98606.00;5126787;28;20081;-71
2022/08/14 04:13:36;;;;;;;7.65;6.85;;;;;;;22.73;57.20;98608.88;5126442;28;20104;-71
2022/08/14 04:16:06;;;;;;;8.18;6.32;;;;;;;22.74;57.14;98609.72;5126442;28;20055;-71
2022/08/14 04:18:34;;;;;;;6.95;6.25;;;;;;;22.24;57.47;98531.88;5126552;28;20104;-71
2022/08/14 04:21:01;;;;;;;8.15;7.35;;;;;;;22.71;57.20;98604.66;5126547;28;20311;-71
2022/08/14 04:23:29;;;;;;;7.07;6.38;;;;;;;22.71;57.32;98605.50;5126508;28;20051;-70
2022/08/14 04:25:57;;;;;;;9.07;7.13;;;;;;;22.76;56.98;98607.66;5126113;28;20319;-70
2022/08/14 04:28:26;;;;;;;10.48;7.20;;;;;;;22.71;57.35;98596.56;5126194;28;20100;-71
2022/08/14 04:30:53;;;;;;;7.55;6.85;;;;;;;22.48;57.26;98565.97;5126460;28;20059;-71
2022/08/14 04:33:23;;;;;;;8.27;7.47;;;;;;;22.65;57.31;98591.88;5126401;28;20218;-71
2022/08/14 04:35:51;;;;;;;9.02;8.00;;;;;;;22.63;57.43;98591.22;5126123;28;20051;-71
2022/08/14 04:43:52;;;;;;;7.13;6.43;;;;;;;22.66;57.64;98593.56;5126238;28;20237;-71
2022/08/14 04:46:21;;;;;;;7.40;6.47;;;;;;;22.64;57.69;98592.91;5126285;28;20051;-71
2022/08/14 04:48:48;;;;;;;8.20;7.35;;;;;;;22.65;57.64;98591.88;5126140;28;20100;-71
2022/08/14 04:51:16;;;;;;;7.82;6.72;;;;;;;22.63;57.85;98593.94;5125939;28;20117;-71
2022/08/14 04:53:46;;;;;;;7.75;6.93;;;;;;;22.62;57.70;98595.78;5125637;28;20084;-71
2022/08/14 04:56:16;;;;;;;7.60;6.80;;;;;;;22.66;57.30;98589.00;5126081;28;20101;-70
2022/08/14 04:58:46;;;;;;;9.52;7.57;;;;;;;22.64;57.84;98588.34;5126010;28;20108;-71
2022/08/14 05:01:15;;;;;;;7.78;6.97;;;;;;;22.70;57.48;98586.78;5125961;28;20115;-70
2022/08/14 05:03:42;;;;;;;7.18;6.47;;;;;;;22.68;57.67;98576.16;5125997;28;20319;-70
2022/08/14 05:06:11;;;;;;;8.20;7.35;;;;;;;22.70;57.55;98581.38;5125701;28;20056;-71
2022/08/14 05:08:39;;;;;;;8.35;7.05;;;;;;;22.68;57.90;98584.25;5125926;28;20064;-70
2022/08/14 05:11:08;;;;;;;9.52;7.38;;;;;;;22.70;57.69;98581.38;5125477;28;20055;-71
2022/08/14 05:13:36;;;;;;;7.38;6.57;;;;;;;22.61;57.56;98560.84;5125630;28;20063;-71
2022/08/14 05:16:06;;;;;;;7.75;7.03;;;;;;;22.75;57.42;98573.56;5126188;28;20081;-70
2022/08/14 05:18:37;;;;;;;9.25;7.18;;;;;;;22.70;58.11;98575.97;5125761;28;20055;-71
2022/08/14 05:21:06;;;;;;;8.02;7.22;;;;;;;22.71;57.78;98573.09;5125625;28;20108;-71
2022/08/14 05:23:37;;;;;;;8.50;7.65;;;;;;;22.75;58.04;98572.75;5125770;28;20063;-71
2022/08/14 05:26:11;;;;;;;9.98;8.02;;;;;;;22.76;57.79;98563.63;5125828;28;20128;-71
2022/08/14 05:28:44;;;;;;;8.52;7.72;;;;;;;22.63;57.63;98550.72;5126025;28;20250;-70
2022/08/14 05:31:13;;;;;;;8.00;7.20;;;;;;;22.75;57.59;98561.94;5125837;28;20052;-71
2022/08/14 05:33:41;;;;;;;8.23;7.43;;;;;;;22.77;57.72;98554.50;5125599;28;20100;-70
2022/08/14 05:36:10;;;;;;;8.02;7.22;;;;;;;22.78;58.10;98558.88;5125808;28;20055;-71
2022/08/14 05:38:39;;;;;;;9.32;7.07;;;;;;;22.78;57.86;98566.97;5129414;28;20055;-71
2022/08/14 05:41:08;;;;;;;9.15;7.78;;;;;;;22.82;57.79;98562.88;5129980;28;20222;-71
2022/08/14 05:43:36;;;;;;;9.48;7.57;;;;;;;22.84;57.64;98566.25;5129285;28;20316;-71
2022/08/14 05:46:03;;;;;;;9.18;8.20;;;;;;;22.81;57.77;98559.34;5129639;28;20261;-71
2022/08/14 05:48:30;;;;;;;8.93;8.02;;;;;;;22.85;57.63;98562.53;5129212;28;20109;-71
2022/08/14 05:50:59;;;;;;;8.00;7.20;;;;;;;22.85;57.78;98551.72;5129491;28;20100;-71
2022/08/14 05:53:27;;;;;;;8.45;7.65;;;;;;;22.53;57.91;98510.44;5129047;28;20059;-71
2022/08/14 05:55:55;;;;;;;9.38;8.23;;;;;;;22.91;57.83;98548.28;5129142;28;20051;-71
2022/08/14 05:58:23;;;;;;;8.27;7.47;;;;;;;22.79;57.62;98542.47;5129241;28;20059;-71
2022/08/14 06:00:51;;;;;;;9.90;8.52;;;;;;;22.89;57.99;98556.56;5129282;28;20097;-71
2022/08/14 06:03:21;;;;;;;9.48;8.57;;;;;;;22.82;57.79;98549.38;5129166;27;20059;-71
2022/08/14 06:05:50;;;;;;;9.65;8.63;;;;;;;22.85;57.98;98549.84;5129283;28;20100;-71
2022/08/14 06:08:20;;;;;;;8.93;8.02;;;;;;;22.91;57.81;98559.09;5129176;28;20253;-71
2022/08/14 06:10:49;;;;;;;8.88;7.68;;;;;;;22.96;57.68;98559.38;5129012;27;20055;-71
2022/08/14 06:13:17;;;;;;;9.43;8.52;;;;;;;22.97;57.68;98556.50;5129050;28;20056;-71
2022/08/14 06:15:44;;;;;;;9.43;8.43;;;;;;;22.93;57.53;98563.28;5128717;28;20059;-71
2022/08/14 06:18:12;;;;;;;9.02;8.13;;;;;;;22.70;57.64;98539.00;5128661;28;20085;-71
2022/08/14 06:20:39;;;;;;;9.38;8.43;;;;;;;22.56;57.35;98491.19;5128961;28;20097;-70
2022/08/14 06:23:06;;;;;;;10.35;9.35;;;;;;;23.01;57.67;98565.09;5128472;28;20063;-71
2022/08/14 06:25:35;;;;;;;9.32;8.50;;;;;;;23.02;57.42;98559.50;5128771;28;20104;-71
2022/08/14 06:28:03;;;;;;;9.77;8.82;;;;;;;22.97;57.31;98561.06;5128747;28;20105;-71
2022/08/14 06:30:32;;;;;;;10.27;9.27;;;;;;;22.95;57.43;98557.72;5128565;28;20112;-70
2022/08/14 06:33:00;;;;;;;9.85;8.95;;;;;;;22.93;57.57;98560.59;5128362;28;20096;-70
2022/08/14 06:35:27;;;;;;;9.48;8.57;;;;;;;22.95;57.43;98563.13;5128556;28;20140;-70
2022/08/14 06:37:57;;;;;;;9.57;8.55;;;;;;;22.83;57.57;98542.97;5128240;28;20052;-71
2022/08/14 06:40:26;;;;;;;9.13;8.23;;;;;;;22.96;57.47;98560.22;5128172;28;20059;-71
2022/08/14 06:42:55;;;;;;;11.07;9.98;;;;;;;22.84;57.61;98541.94;5128546;28;20292;-71
2022/08/14 06:45:22;;;;;;;10.27;9.27;;;;;;;22.98;57.56;98566.28;5128490;28;20055;-71
2022/08/14 06:47:49;;;;;;;9.85;8.95;;;;;;;23.00;57.35;98560.69;5127771;28;20108;-71
2022/08/14 06:50:20;;;;;;;10.07;9.18;;;;;;;23.00;57.50;98558.00;5128243;27;20312;-71
2022/08/14 06:52:48;;;;;;;8.77;7.88;;;;;;;22.99;57.38;98561.72;5128274;27;20096;-70
2022/08/14 06:55:17;;;;;;;10.68;9.60;;;;;;;22.97;57.47;98558.38;5127772;28;20051;-71
2022/08/14 06:57:47;;;;;;;9.90;8.38;;;;;;;22.96;57.80;98556.69;5128028;28;20097;-71
2022/08/14 07:00:19;;;;;;;9.27;8.38;;;;;;;23.01;57.40;98554.28;5128084;28;20304;-71
2022/08/14 07:05:46;;;;;;;8.32;7.53;;;;;;;22.94;57.66;98556.03;5127987;27;20084;-71
2022/08/14 07:08:16;;;;;;;9.25;8.35;;;;;;;22.97;57.40;98555.66;5128031;28;20063;-71
2022/08/14 07:10:44;;;;;;;8.98;8.07;;;;;;;22.98;57.66;98551.94;5127721;28;20205;-71
2022/08/14 07:13:13;;;;;;;9.05;8.25;;;;;;;22.99;57.59;98557.16;5127752;27;20052;-71
2022/08/14 07:15:44;;;;;;;8.25;7.55;;;;;;;23.01;57.60;98554.28;5127637;28;20060;-71
2022/08/14 07:18:12;;;;;;;9.85;8.77;;;;;;;22.97;57.85;98563.78;5127571;28;20266;-70
2022/08/14 07:20:40;;;;;;;9.23;7.90;;;;;;;22.98;57.54;98566.28;5127718;28;20055;-71
2022/08/14 07:23:09;;;;;;;9.55;8.65;;;;;;;22.91;57.66;98551.00;5127190;28;20051;-71
2022/08/14 07:25:37;;;;;;;9.75;8.85;;;;;;;22.80;57.76;98525.25;5127535;28;20175;-71
2022/08/14 07:28:09;;;;;;;9.60;8.70;;;;;;;22.95;57.26;98553.16;5127183;28;20055;-71
2022/08/14 07:30:36;;;;;;;8.98;8.07;;;;;;;23.05;57.47;98564.53;5127516;27;20059;-71
2022/08/14 07:33:05;;;;;;;9.40;8.50;;;;;;;23.07;57.64;98563.50;5127410;27;20104;-71
2022/08/14 07:35:34;;;;;;;9.32;8.18;;;;;;;23.07;57.44;98572.47;5127402;28;20056;-71
2022/08/14 07:38:01;;;;;;;8.90;7.97;;;;;;;23.08;57.61;98571.44;5127323;28;20056;-71
2022/08/14 07:40:33;;;;;;;9.45;8.25;;;;;;;20.66;57.38;98149.53;5126988;28;20105;-71
2022/08/14 07:43:01;;;;;;;8.68;7.78;;;;;;;23.12;57.25;98561.94;5127209;28;20249;-71
2022/08/14 07:45:29;;;;;;;10.27;9.18;;;;;;;23.12;57.46;98559.22;5126892;28;20269;-71
2022/08/14 07:47:56;;;;;;;9.55;8.40;;;;;;;23.09;57.42;98550.66;5127248;27;20059;-71
2022/08/14 07:50:25;;;;;;;8.93;8.00;;;;;;;23.15;57.49;98552.63;5126886;28;20055;-71
2022/08/14 07:52:52;;;;;;;7.95;7.18;;;;;;;23.15;57.32;98549.91;5126995;28;20246;-71
2022/08/14 07:55:19;;;;;;;12.32;8.55;;;;;;;23.15;57.56;98556.16;5126714;28;20077;-71
2022/08/14 07:57:49;;;;;;;11.15;8.15;;;;;;;23.15;57.23;98558.88;5126953;28;20104;-71
2022/08/14 08:00:21;;;;;;;10.25;7.75;;;;;;;23.17;57.43;98556.81;5126202;28;20234;-70
2022/08/14 08:02:50;;;;;;;8.50;7.70;;;;;;;22.89;57.16;98512.50;5125682;28;20307;-71
2022/08/14 08:05:20;;;;;;;8.80;7.97;;;;;;;23.16;57.17;98557.00;5126437;28;20367;-71
2022/08/14 08:07:48;;;;;;;10.02;9.05;;;;;;;23.14;57.21;98554.47;5126426;28;20056;-71
2022/08/14 08:10:33;;;;;;;8.07;7.00;;;;;;;23.01;57.27;98529.94;5126246;28;20124;-71
2022/08/14 08:13:03;;;;;;;9.05;8.18;;;;;;;23.14;57.24;98553.66;5126485;28;20051;-71
2022/08/14 08:15:32;;;;;;;8.05;7.25;;;;;;;22.43;56.97;98434.25;5126736;28;20073;-70
2022/08/14 08:18:03;;;;;;;8.90;8.00;;;;;;;23.09;57.20;98554.19;5126308;28;20097;-71
2022/08/14 08:20:32;;;;;;;9.27;8.40;;;;;;;23.09;57.21;98543.38;5126332;28;20056;-71
2022/08/14 08:23:01;;;;;;;10.27;9.25;;;;;;;23.05;57.23;98526.69;5126341;28;20093;-71
2022/08/14 08:25:30;;;;;;;9.88;8.93;;;;;;;23.18;57.15;98545.00;5125919;28;20051;-71
2022/08/14 08:28:00;;;;;;;8.80;7.90;;;;;;;22.89;57.01;98507.94;5125893;28;20368;-70
2022/08/14 08:30:29;;;;;;;8.15;7.20;;;;;;;22.71;56.70;98491.22;5126362;28;20059;-71
2022/08/14 08:32:59;;;;;;;9.30;8.35;;;;;;;23.14;57.07;98549.06;5125993;28;20077;-71
2022/08/14 08:35:29;;;;;;;8.73;7.82;;;;;;;23.13;57.12;98560.06;5126332;28;20104;-71
2022/08/14 08:38:04;;;;;;;9.10;7.65;;;;;;;23.12;57.46;98548.44;5126302;28;20315;-71
2022/08/14 08:40:35;;;;;;;8.85;8.00;;;;;;;23.12;57.26;98551.13;5126265;28;20055;-71
2022/08/14 08:43:06;;;;;;;9.43;8.32;;;;;;;23.16;57.29;98549.75;5125935;28;20055;-71
2022/08/14 08:45:34;;;;;;;9.15;8.30;;;;;;;23.17;57.33;98550.56;5125896;28;20311;-71
2022/08/14 08:48:03;;;;;;;8.00;7.20;;;;;;;23.18;57.43;98554.97;5126680;28;20052;-71
2022/08/14 08:50:32;;;;;;;8.57;6.95;;;;;;;23.11;57.56;98551.31;5125958;28;20315;-71
2022/08/14 08:53:03;;;;;;;7.90;6.85;;;;;;;23.14;57.48;98548.25;5125126;28;20059;-71
2022/08/14 08:55:34;;;;;;;7.60;6.65;;;;;;;23.11;57.61;98544.03;5125556;28;20167;-71
2022/08/14 08:58:04;;;;;;;7.93;7.13;;;;;;;23.13;57.97;98547.41;5125851;28;20051;-71
2022/08/14 09:00:34;;;;;;;8.25;7.45;;;;;;;22.69;57.55;98469.81;5125714;28;20062;-71
2022/08/14 09:03:05;;;;;;;7.97;7.18;;;;;;;23.17;57.56;98550.56;5125460;28;20049;-71
2022/08/14 09:05:34;;;;;;;7.82;7.03;;;;;;;23.20;57.40;98545.63;5126214;28;20059;-71
2022/08/14 09:08:14;;;;;;;7.80;7.05;;;;;;;23.22;57.66;98542.75;5124509;28;20043;-71
2022/08/14 09:10:42;;;;;;;7.78;7.07;;;;;;;23.00;57.54;98495.84;5126602;28;20364;-71
2022/08/14 09:13:11;;;;;;;7.95;7.10;;;;;;;23.15;57.68;98512.09;5130181;28;20349;-71
2022/08/14 09:15:44;;;;;;;8.02;7.22;;;;;;;23.31;57.25;98536.28;5129950;28;20039;-71
2022/08/14 09:18:13;;;;;;;8.27;7.43;;;;;;;23.35;57.17;98535.72;5130167;27;20063;-71
2022/08/14 09:20:42;;;;;;;8.25;7.45;;;;;;;23.41;57.03;98536.00;5129748;28;20156;-71
2022/08/14 09:23:10;;;;;;;8.98;8.13;;;;;;;23.43;56.83;98544.75;5130000;28;20070;-71
2022/08/14 09:25:41;;;;;;;8.27;7.50;;;;;;;23.14;56.80;98496.88;5129867;28;20055;-71
2022/08/14 09:28:09;;;;;;;9.02;7.75;;;;;;;23.33;56.75;98521.53;5129593;28;20112;-71
2022/08/14 09:30:40;;;;;;;7.97;7.22;;;;;;;23.46;56.67;98544.38;5129866;28;20062;-71
2022/08/14 09:33:29;;;;;;;8.98;8.07;;;;;;;23.47;56.75;98546.91;5129460;28;20097;-71
2022/08/14 09:36:25;;;;;;;10.00;8.95;;;;;;;22.96;56.85;98452.16;5129760;28;20055;-71
2022/08/14 09:39:11;;;;;;;8.95;8.05;;;;;;;23.53;56.47;98539.91;5129842;28;20330;-71
2022/08/14 09:41:53;;;;;;;9.15;8.25;;;;;;;23.55;56.51;98541.41;5129603;28;20064;-71
2022/08/14 09:44:45;;;;;;;9.95;8.57;;;;;;;23.64;56.21;98539.44;5129464;28;20311;-71
2022/08/14 09:47:13;;;;;;;9.05;8.10;;;;;;;23.64;56.13;98532.16;5128174;28;20056;-71
2022/08/14 09:49:41;;;;;;;9.90;8.85;;;;;;;23.74;55.85;98523.75;5128925;28;20113;-71
2022/08/14 09:52:10;;;;;;;9.27;8.35;;;;;;;23.63;55.85;98510.72;5129104;28;20112;-71
2022/08/14 09:54:39;;;;;;;11.20;7.97;;;;;;;23.79;55.77;98529.44;5128923;28;20085;-71
2022/08/14 09:57:09;;;;;;;8.65;7.85;;;;;;;23.85;55.80;98534.09;5129359;28;20105;-72
2022/08/14 09:59:41;;;;;;;9.38;7.80;;;;;;;23.81;55.37;98519.28;5129397;28;20319;-71
2022/08/14 10:02:20;;;;;;;8.95;8.15;;;;;;;23.81;55.53;98521.97;5128933;28;20303;-71
2022/08/14 10:04:59;;;;;;;10.10;9.10;;;;;;;23.82;55.40;98522.81;5129245;28;20263;-71
2022/08/14 10:07:31;;;;;;;9.77;8.05;;;;;;;23.30;55.29;98423.75;5128684;28;20051;-72
2022/08/14 10:09:59;;;;;;;8.18;7.38;;;;;;;23.67;55.17;98480.41;5128782;28;20063;-71
2022/08/14 10:12:43;;;;;;;9.50;8.60;;;;;;;23.89;55.29;98508.34;5129113;28;20062;-71
2022/08/14 10:15:20;;;;;;;9.73;8.83;;;;;;;23.92;55.01;98507.13;5128793;28;20387;-71
2022/08/14 10:17:49;;;;;;;9.57;8.52;;;;;;;23.93;54.99;98509.63;5128674;27;20051;-72
2022/08/14 10:20:20;;;;;;;9.75;8.25;;;;;;;23.98;55.32;98509.09;5128963;28;20368;-71
2022/08/14 10:22:49;;;;;;;8.95;7.88;;;;;;;23.99;54.73;98489.97;5127948;28;20051;-72
2022/08/14 10:25:18;;;;;;;8.73;7.82;;;;;;;24.11;54.67;98497.59;5128487;28;20108;-71
2022/08/14 10:27:57;;;;;;;8.82;7.95;;;;;;;24.17;54.63;98496.81;5128457;28;20092;-72
2022/08/14 10:30:33;;;;;;;9.93;8.93;;;;;;;22.18;54.01;98154.78;5128703;27;20100;-72
2022/08/14 10:33:01;;;;;;;9.20;8.30;;;;;;;24.25;54.79;98488.56;5128418;28;20071;-72
2022/08/14 10:35:40;;;;;;;9.40;8.45;;;;;;;24.25;54.03;98488.56;5128381;28;20104;-72
2022/08/14 10:38:07;;;;;;;9.70;8.70;;;;;;;24.13;54.22;98465.75;5128583;28;20100;-72
2022/08/14 10:40:34;;;;;;;8.68;7.72;;;;;;;24.24;54.13;98492.31;5128510;28;20311;-72
2022/08/14 10:43:04;;;;;;;10.18;8.02;;;;;;;24.26;54.51;98495.66;5128187;28;20055;-72
2022/08/14 10:45:34;;;;;;;10.65;8.75;;;;;;;24.28;54.48;98491.72;5128057;27;20340;-72
2022/08/14 10:48:01;;;;;;;9.77;8.80;;;;;;;24.25;54.25;98494.00;5128341;27;20113;-72
2022/08/14 10:50:29;;;;;;;9.23;8.32;;;;;;;24.30;54.10;98489.69;5128347;28;20307;-72
2022/08/14 10:52:58;;;;;;;9.65;8.63;;;;;;;24.32;53.97;98489.47;5128184;28;20055;-72
2022/08/14 10:55:32;;;;;;;9.75;8.82;;;;;;;24.36;53.72;98489.94;5127522;28;20068;-72
2022/08/14 10:58:00;;;;;;;9.80;8.68;;;;;;;24.35;54.27;98497.22;5127996;28;20051;-72
2022/08/14 11:00:29;;;;;;;9.32;8.15;;;;;;;24.41;54.43;98498.31;5127724;28;20101;-72
2022/08/14 11:02:59;;;;;;;10.15;9.15;;;;;;;24.43;54.23;98488.97;5128157;28;20116;-72
2022/08/14 11:05:39;;;;;;;8.60;7.70;;;;;;;24.41;53.96;98482.06;5128264;28;20345;-72
2022/08/14 11:08:07;;;;;;;9.25;8.35;;;;;;;24.47;53.95;98478.56;5127755;28;20109;-72
2022/08/14 11:10:45;;;;;;;8.80;7.60;;;;;;;24.52;53.02;98481.53;5127721;28;20055;-73
2022/08/14 11:13:18;;;;;;;9.70;8.70;;;;;;;23.99;52.99;98399.81;5128137;28;20055;-72
2022/08/14 11:15:47;;;;;;;8.27;7.30;;;;;;;24.57;53.04;98468.25;5127921;28;20055;-72
2022/08/14 11:18:15;;;;;;;8.65;7.82;;;;;;;24.59;53.33;98463.47;5128132;28;20104;-73
2022/08/14 11:20:49;;;;;;;10.25;7.88;;;;;;;24.68;52.87;98458.78;5128180;27;20056;-73
2022/08/14 11:23:20;;;;;;;8.85;7.95;;;;;;;24.70;53.23;98460.28;5128261;28;20055;-72
2022/08/14 11:25:48;;;;;;;9.55;7.82;;;;;;;24.59;53.28;98430.97;5128039;28;20081;-73
2022/08/14 11:28:16;;;;;;;9.60;8.60;;;;;;;24.81;53.19;98456.19;5127095;28;20120;-72
2022/08/14 11:30:44;;;;;;;9.60;8.70;;;;;;;24.52;52.80;98397.56;5127361;28;20113;-72
2022/08/14 11:33:13;;;;;;;10.05;9.05;;;;;;;24.70;52.37;98413.38;5127432;27;20059;-72
2022/08/14 11:35:42;;;;;;;9.15;7.50;;;;;;;24.99;52.33;98445.69;5126196;28;20061;-73
2022/08/14 11:38:11;;;;;;;9.07;8.18;;;;;;;25.04;52.37;98455.97;5127258;27;20188;-72
2022/08/14 11:40:39;;;;;;;8.50;7.70;;;;;;;25.04;52.49;98456.78;5127351;28;20184;-73
2022/08/14 11:43:08;;;;;;;8.70;7.90;;;;;;;25.07;52.77;98450.97;5127345;28;20052;-72
2022/08/14 11:45:40;;;;;;;9.25;7.35;;;;;;;25.12;52.17;98459.34;5127653;28;20060;-72
2022/08/14 11:48:19;;;;;;;9.07;8.18;;;;;;;24.41;51.38;98336.66;5127276;28;20051;-70
2022/08/14 11:50:49;;;;;;;9.27;8.38;;;;;;;25.17;51.85;98454.16;5127151;28;20055;-70
2022/08/14 11:53:21;;;;;;;9.05;8.15;;;;;;;24.68;51.09;98366.69;5126590;28;20100;-70